This is the latest recevied weather packets stored in our database for station/object LRCT. If no packets are shown the sender has not sent any weather packets the latest 1 day(s).
| Time | Temp. | Humidity | Pressure | Rain* | Wind** | Luminosity | Snow |
|---|---|---|---|---|---|---|---|
| 1778096953 | 20° C | 43% | 1012 hPa | - | - | - | - |
| 1778096060 | 20° C | 43% | 1012 hPa | - | - | - | - |
| 1778094237 | 20° C | 43% | 1012 hPa | - | - | - | - |
| 1778092437 | 20° C | 46% | 1011 hPa | - | - | - | - |
| 1778091537 | 20° C | 46% | 1011 hPa | - | - | - | - |
| 1778087937 | 22.78° C | 38% | 1011 hPa | - | - | - | - |
| 1778086137 | 26.11° C | 30% | 1011 hPa | - | - | - | - |
| 1778084337 | 26.11° C | 30% | 1011 hPa | - | - | - | - |
| 1778082537 | 27.22° C | 23% | 1011 hPa | - | - | - | - |
| 1778078937 | 27.22° C | 23% | 1011 hPa | - | - | - | - |
| 1778074437 | 27.22° C | 26% | 1012 hPa | - | - | - | - |
| 1778068137 | 26.11° C | 28% | 1013 hPa | - | - | - | - |
| 1778064537 | 23.89° C | 34% | 1014 hPa | - | - | - | - |
| 1778063637 | 23.89° C | 34% | 1014 hPa | - | - | - | - |
| 1778062737 | 23.89° C | 34% | 1014 hPa | - | - | - | - |
| 1778061837 | 23.89° C | 34% | 1014 hPa | - | - | - | - |
| 1778060937 | 22.22° C | 41% | 1014 hPa | - | - | - | - |
| 1778059137 | 22.22° C | 41% | 1014 hPa | - | - | - | - |
| 1778057337 | 20° C | 46% | 1014 hPa | - | - | - | - |
| 1778056436 | 20° C | 46% | 1014 hPa | - | - | - | - |
| 1778055533 | 20° C | 46% | 1014 hPa | - | - | - | - |
| 1778054637 | 20° C | 46% | 1014 hPa | - | - | - | - |
| 1778053738 | 17.22° C | 52% | 1014 hPa | - | - | - | - |
| 1778052837 | 17.22° C | 52% | 1014 hPa | - | - | - | - |
| 1778051936 | 17.22° C | 52% | 1014 hPa | - | - | - | - |
* Rain since midnight (hover to see other rain measurements)
** Current wind speed in m/s (hover to see current wind gust speed)